createdAt,value
2019-01-05T00:00:01.965Z,10.67
2019-01-05T00:02:45.575Z,11.27
2019-01-05T00:05:27.749Z,11.10
2019-01-05T00:08:12.954Z,12.40
2019-01-05T00:14:05.038Z,9.70
2019-01-05T00:17:05.166Z,12.53
2019-01-05T00:19:46.726Z,9.73
2019-01-05T00:22:31.659Z,10.03
2019-01-05T00:25:31.834Z,11.10
2019-01-05T00:28:31.385Z,10.90
2019-01-05T00:31:31.197Z,10.53
2019-01-05T00:34:30.502Z,10.80
2019-01-05T00:40:37.337Z,9.77
2019-01-05T00:43:36.655Z,10.70
2019-01-05T00:46:36.105Z,10.60
2019-01-05T00:52:34.536Z,9.80
2019-01-05T00:55:33.744Z,10.47
2019-01-05T00:58:15.196Z,10.10
2019-01-05T01:01:15.222Z,9.80
2019-01-05T01:07:07.066Z,10.37
2019-01-05T01:09:52.219Z,11.30
2019-01-05T01:12:52.212Z,10.70
2019-01-05T01:15:52.216Z,10.60
2019-01-05T01:18:36.227Z,10.47
2019-01-05T01:21:20.565Z,11.50
2019-01-05T01:24:20.630Z,11.30
2019-01-05T01:27:01.894Z,11.20
2019-01-05T01:33:16.296Z,11.80
2019-01-05T01:36:15.778Z,12.10
2019-01-05T01:39:15.000Z,11.90
2019-01-05T01:42:14.263Z,12.27
2019-01-05T01:45:14.182Z,12.17
2019-01-05T01:48:14.305Z,12.37
2019-01-05T01:50:55.405Z,12.80
2019-01-05T01:53:54.576Z,11.53
2019-01-05T01:56:36.889Z,10.80
2019-01-05T01:59:21.567Z,12.70
2019-01-05T02:02:06.513Z,12.30
2019-01-05T02:04:48.638Z,11.20
2019-01-05T02:07:48.844Z,12.40
2019-01-05T02:10:33.766Z,12.77
2019-01-05T02:13:16.910Z,11.20
2019-01-05T02:16:17.887Z,11.80
2019-01-05T02:18:59.077Z,11.50
2019-01-05T02:21:40.223Z,12.50
2019-01-05T02:24:40.316Z,11.70
2019-01-05T02:27:39.743Z,11.10
2019-01-05T02:30:39.682Z,11.27
2019-01-05T02:33:21.827Z,11.07
2019-01-05T02:36:05.829Z,10.97
2019-01-05T02:38:47.637Z,10.53
2019-01-05T02:44:29.409Z,9.47
2019-01-05T02:47:11.554Z,11.00
2019-01-05T02:53:00.443Z,9.20
2019-01-05T02:56:00.301Z,12.07
2019-01-05T03:02:48.213Z,9.93
2019-01-05T03:05:33.060Z,10.07
2019-01-05T03:08:33.084Z,10.20
2019-01-05T03:11:32.342Z,9.37
2019-01-05T03:14:14.556Z,9.50
2019-01-05T03:20:27.334Z,10.80
2019-01-05T03:23:12.067Z,10.67
2019-01-05T03:25:53.484Z,10.67
2019-01-05T03:29:19.587Z,11.77
2019-01-05T03:32:27.884Z,10.50
2019-01-05T03:35:27.000Z,11.53
2019-01-05T03:38:26.623Z,9.47
2019-01-05T03:41:26.690Z,9.70
2019-01-05T03:44:08.087Z,9.70
2019-01-05T03:47:08.086Z,10.70
2019-01-05T03:53:03.581Z,11.47
2019-01-05T03:55:47.706Z,12.87
2019-01-05T03:58:47.060Z,11.00
2019-01-05T04:01:46.556Z,10.93
2019-01-05T04:04:31.259Z,10.40
2019-01-05T04:07:31.461Z,12.40
2019-01-05T04:16:38.271Z,10.97
2019-01-05T04:19:40.575Z,10.60
2019-01-05T04:22:40.685Z,11.20
2019-01-05T04:25:40.851Z,10.80
2019-01-05T04:28:40.855Z,11.80
2019-01-05T04:31:40.046Z,12.20
2019-01-05T04:34:21.228Z,10.23
2019-01-05T04:37:20.435Z,10.90
2019-01-05T04:40:04.559Z,10.10
2019-01-05T04:43:03.937Z,10.10
2019-01-05T04:46:03.184Z,9.63
2019-01-05T04:49:02.609Z,10.00
2019-01-05T04:51:44.746Z,10.47
2019-01-05T04:54:44.774Z,9.20
2019-01-05T04:57:27.142Z,9.67
2019-01-05T05:00:26.416Z,10.27
2019-01-05T05:03:10.688Z,10.23
2019-01-05T05:06:10.630Z,11.27
2019-01-05T05:09:09.796Z,11.50
2019-01-05T05:11:55.005Z,9.40
2019-01-05T05:14:39.956Z,9.50
2019-01-05T05:20:37.906Z,9.47
2019-01-05T05:23:38.027Z,8.57
2019-01-05T05:26:20.149Z,9.80
2019-01-05T05:29:20.351Z,9.30
2019-01-05T05:35:27.334Z,9.57
2019-01-05T05:38:11.908Z,9.60
2019-01-05T05:41:11.862Z,9.23
2019-01-05T05:43:53.107Z,9.37
2019-01-05T05:46:53.214Z,8.50
2019-01-05T05:52:59.509Z,8.60
2019-01-05T05:55:43.906Z,9.20
2019-01-05T05:58:25.359Z,8.30
2019-01-05T06:01:25.170Z,8.77
2019-01-05T06:04:07.191Z,10.20
2019-01-05T06:07:07.268Z,9.90
2019-01-05T06:09:52.169Z,8.60
2019-01-05T06:12:33.560Z,9.23
2019-01-05T06:18:18.931Z,8.07
2019-01-05T06:21:03.194Z,8.93
2019-01-05T06:23:48.319Z,8.60
2019-01-05T06:30:01.460Z,8.90
2019-01-05T06:33:01.554Z,8.80
2019-01-05T06:35:43.573Z,9.40
2019-01-05T06:38:43.544Z,9.40
2019-01-05T06:41:28.646Z,9.10
2019-01-05T06:44:27.823Z,9.20
2019-01-05T06:47:14.759Z,9.10
2019-01-05T06:49:59.213Z,8.10
2019-01-05T06:52:59.173Z,9.27
2019-01-05T06:55:59.225Z,10.23
2019-01-05T06:58:59.232Z,9.00
2019-01-05T07:01:58.472Z,9.40
2019-01-05T07:04:43.652Z,9.77
2019-01-05T07:07:43.663Z,8.80
2019-01-05T07:10:42.978Z,8.77
2019-01-05T07:13:27.295Z,9.87
2019-01-05T07:16:11.624Z,8.83
2019-01-05T07:18:56.641Z,8.60
2019-01-05T07:21:56.040Z,9.70
2019-01-05T07:27:56.868Z,8.80
2019-01-05T07:30:38.188Z,9.60
2019-01-05T07:33:25.328Z,9.50
2019-01-05T07:36:24.720Z,8.90
2019-01-05T07:39:09.889Z,9.40
2019-01-05T07:42:09.092Z,9.57
2019-01-05T07:45:09.181Z,9.20
2019-01-05T07:47:50.748Z,8.83
2019-01-05T07:50:35.194Z,9.20
2019-01-05T07:56:33.487Z,9.47
2019-01-05T07:59:32.753Z,8.80
2019-01-05T08:02:14.903Z,9.70
2019-01-05T08:05:14.902Z,9.07
2019-01-05T08:08:14.043Z,9.07
2019-01-05T08:10:56.104Z,8.63
2019-01-05T08:13:41.004Z,9.70
2019-01-05T08:16:41.064Z,9.57
2019-01-05T08:19:25.396Z,9.10
2019-01-05T08:22:27.604Z,8.20
2019-01-05T08:25:15.154Z,8.77
2019-01-05T08:34:21.322Z,9.30
2019-01-05T08:37:35.667Z,9.40
2019-01-05T08:40:27.165Z,10.10
2019-01-05T08:43:37.776Z,9.23
2019-01-05T08:47:03.768Z,9.27
2019-01-05T08:50:03.083Z,8.43
2019-01-05T08:52:50.133Z,9.50
2019-01-05T08:55:34.413Z,9.50
2019-01-05T08:58:34.668Z,8.70
2019-01-05T09:01:24.697Z,10.03
2019-01-05T09:04:09.881Z,8.80
2019-01-05T09:07:09.882Z,9.60
2019-01-05T09:10:09.922Z,9.33
2019-01-05T09:12:56.999Z,10.20
2019-01-05T09:15:56.245Z,9.90
2019-01-05T09:18:40.999Z,8.97
2019-01-05T09:21:40.317Z,9.93
2019-01-05T09:24:21.782Z,10.00
2019-01-05T09:27:03.662Z,9.80
2019-01-05T09:30:29.742Z,9.37
2019-01-05T09:33:29.067Z,9.77
2019-01-05T09:36:29.314Z,9.67
2019-01-05T09:39:29.499Z,10.00
2019-01-05T09:42:11.675Z,8.93
2019-01-05T09:44:56.647Z,9.37
2019-01-05T09:47:56.393Z,8.90
2019-01-05T09:50:57.751Z,9.10
2019-01-05T09:57:04.515Z,9.90
2019-01-05T10:00:03.734Z,9.70
2019-01-05T10:03:04.013Z,9.40
2019-01-05T10:05:48.347Z,10.63
2019-01-05T10:08:48.774Z,8.80
2019-01-05T10:11:48.783Z,10.77
2019-01-05T10:14:31.160Z,9.30
2019-01-05T10:17:30.713Z,9.20
2019-01-05T10:23:43.926Z,10.17
2019-01-05T10:26:43.315Z,9.67
2019-01-05T10:29:42.546Z,9.57
2019-01-05T10:32:23.829Z,9.37
2019-01-05T10:35:07.874Z,10.70
2019-01-05T10:37:53.429Z,9.67
2019-01-05T10:40:53.567Z,9.70
2019-01-05T10:43:52.844Z,9.60
2019-01-05T10:46:53.330Z,8.43
2019-01-05T10:49:38.160Z,8.90
2019-01-05T10:52:37.550Z,9.37
2019-01-05T10:55:22.378Z,9.23
2019-01-05T10:58:22.488Z,9.60
2019-01-05T11:01:21.658Z,10.07
2019-01-05T11:07:28.799Z,9.60
2019-01-05T11:10:28.170Z,9.97
2019-01-05T11:13:09.461Z,9.37
2019-01-05T11:16:09.344Z,10.00
2019-01-05T11:18:54.853Z,9.33
2019-01-05T11:21:54.882Z,8.80
2019-01-05T11:24:54.877Z,8.53
2019-01-05T11:27:36.078Z,9.73
2019-01-05T11:30:35.357Z,9.90
2019-01-05T11:33:34.577Z,9.13
2019-01-05T11:36:18.939Z,8.97
2019-01-05T11:39:18.998Z,8.70
2019-01-05T11:42:19.018Z,8.17
2019-01-05T11:45:07.415Z,7.97
2019-01-05T11:47:49.610Z,9.40
2019-01-05T11:50:49.167Z,8.50
2019-01-05T11:53:30.508Z,8.10
2019-01-05T11:56:12.616Z,9.73
2019-01-05T11:59:38.657Z,8.93
2019-01-05T12:03:04.674Z,10.00
2019-01-05T12:05:46.493Z,9.70
2019-01-05T12:08:46.596Z,10.57
2019-01-05T12:11:31.148Z,8.67
2019-01-05T12:14:30.924Z,9.07
2019-01-05T12:17:12.129Z,9.73
2019-01-05T12:19:54.090Z,9.10
2019-01-05T12:22:38.896Z,8.67
2019-01-05T12:25:38.442Z,9.20
2019-01-05T12:28:20.499Z,10.30
2019-01-05T12:31:20.687Z,9.73
2019-01-05T12:34:20.792Z,9.40
2019-01-05T12:37:06.177Z,10.10
2019-01-05T12:40:05.742Z,9.33
2019-01-05T12:42:47.825Z,9.37
2019-01-05T12:45:47.743Z,9.87
2019-01-05T12:48:47.791Z,9.50
2019-01-05T12:51:31.865Z,10.37
2019-01-05T12:54:31.163Z,9.20
2019-01-05T12:57:12.477Z,11.30
2019-01-05T13:00:12.525Z,9.50
2019-01-05T13:02:54.789Z,10.63
2019-01-05T13:05:39.749Z,11.70
2019-01-05T13:11:35.876Z,10.73
2019-01-05T13:17:56.382Z,10.00
2019-01-05T13:21:22.495Z,9.77
2019-01-05T13:27:29.202Z,11.00
2019-01-05T13:30:28.752Z,12.23
2019-01-05T13:33:28.737Z,10.60
2019-01-05T13:36:28.126Z,10.30
2019-01-05T13:39:28.060Z,11.17
2019-01-05T13:45:41.836Z,10.10
2019-01-05T13:48:41.685Z,10.67
2019-01-05T13:51:41.634Z,10.47
2019-01-05T13:54:41.056Z,10.90
2019-01-05T13:57:23.029Z,12.60
2019-01-05T14:03:21.054Z,11.77
2019-01-05T14:06:21.401Z,12.83
2019-01-05T14:09:21.237Z,11.23
2019-01-05T14:12:06.511Z,11.33
2019-01-05T14:14:51.692Z,11.10
2019-01-05T14:17:36.869Z,11.73
2019-01-05T14:20:36.957Z,11.77
2019-01-05T14:23:36.970Z,11.57
2019-01-05T14:29:51.392Z,10.73
2019-01-05T14:35:47.808Z,13.97
2019-01-05T14:38:32.525Z,11.97
2019-01-05T14:41:31.929Z,13.50
2019-01-05T14:44:13.545Z,12.17
2019-01-05T14:46:55.286Z,12.13
2019-01-05T14:49:55.301Z,12.00
2019-01-05T14:52:54.658Z,11.17
2019-01-05T14:55:54.672Z,13.17
2019-01-05T14:58:53.963Z,12.77
2019-01-05T15:01:35.163Z,11.70
2019-01-05T15:04:35.135Z,12.50
2019-01-05T15:07:35.171Z,12.50
2019-01-05T15:10:35.142Z,12.03
2019-01-05T15:13:35.218Z,12.47
2019-01-05T15:16:34.373Z,11.20
2019-01-05T15:19:15.746Z,10.70
2019-01-05T15:22:15.693Z,11.50
2019-01-05T15:25:15.821Z,12.73
2019-01-05T15:28:15.860Z,12.50
2019-01-05T15:31:03.183Z,11.97
2019-01-05T15:34:03.228Z,11.77
2019-01-05T15:37:02.332Z,12.17
2019-01-05T15:39:44.469Z,11.90
2019-01-05T15:42:44.307Z,12.53
2019-01-05T15:45:28.580Z,11.63
2019-01-05T15:48:28.678Z,12.37
2019-01-05T15:51:10.511Z,12.80
2019-01-05T15:54:09.724Z,11.30
2019-01-05T15:57:15.857Z,14.47
2019-01-05T16:03:15.206Z,12.80
2019-01-05T16:06:15.492Z,12.93
2019-01-05T16:09:15.433Z,13.40
2019-01-05T16:15:11.729Z,11.97
2019-01-05T16:18:11.672Z,13.13
2019-01-05T16:21:11.860Z,14.23
2019-01-05T16:24:11.063Z,13.17
2019-01-05T16:27:10.388Z,14.23
2019-01-05T16:30:09.835Z,13.10
2019-01-05T16:32:55.022Z,14.67
2019-01-05T16:35:55.061Z,15.17
2019-01-05T16:38:36.363Z,15.00
2019-01-05T16:41:20.872Z,13.67
2019-01-05T16:44:20.888Z,15.33
2019-01-05T16:47:05.380Z,13.50
2019-01-05T16:49:47.661Z,14.30
2019-01-05T16:52:47.646Z,14.60
2019-01-05T16:55:29.783Z,15.83
2019-01-05T16:58:28.836Z,14.40
2019-01-05T17:01:28.021Z,15.43
2019-01-05T17:04:27.249Z,15.70
2019-01-05T17:07:26.636Z,15.33
2019-01-05T17:10:26.016Z,17.27
2019-01-05T17:13:26.156Z,14.37
2019-01-05T17:16:10.539Z,13.33
2019-01-05T17:18:57.705Z,14.20
2019-01-05T17:21:57.049Z,14.30
2019-01-05T17:24:44.145Z,15.73
2019-01-05T17:27:28.118Z,15.00
2019-01-05T17:30:27.479Z,14.03
2019-01-05T17:33:08.814Z,17.63
2019-01-05T17:35:53.526Z,18.33
2019-01-05T17:38:35.791Z,17.13
2019-01-05T17:41:35.718Z,25.90
2019-01-05T17:44:16.983Z,14.30
2019-01-05T17:47:16.142Z,14.17
2019-01-05T17:50:23.157Z,14.10
2019-01-05T17:59:49.967Z,14.83
2019-01-05T18:02:48.851Z,14.17
2019-01-05T18:05:40.550Z,16.03
2019-01-05T18:08:40.242Z,15.13
2019-01-05T18:11:21.563Z,14.97
2019-01-05T18:14:21.457Z,13.90
2019-01-05T18:17:05.454Z,12.93
2019-01-05T18:19:49.636Z,13.57
2019-01-05T18:22:31.723Z,15.43
2019-01-05T18:25:31.756Z,14.87
2019-01-05T18:28:31.449Z,14.50
2019-01-05T18:31:31.354Z,19.17
2019-01-05T18:34:30.835Z,12.40
2019-01-05T18:37:31.064Z,14.53
2019-01-05T18:40:15.995Z,13.53
2019-01-05T18:46:25.163Z,12.50
2019-01-05T18:49:25.095Z,13.43
2019-01-05T18:52:06.483Z,13.20
2019-01-05T18:55:06.325Z,13.93
2019-01-05T18:58:06.226Z,16.40
2019-01-05T19:00:50.573Z,14.20
2019-01-05T19:06:57.577Z,15.33
2019-01-05T19:09:41.996Z,14.60
2019-01-05T19:12:24.053Z,13.43
2019-01-05T19:15:10.326Z,24.80
2019-01-05T19:18:16.491Z,20.67
2019-01-05T19:20:58.366Z,12.20
2019-01-05T19:23:58.388Z,14.03
2019-01-05T19:26:57.554Z,14.27
2019-01-05T19:29:57.644Z,14.73
2019-01-05T19:35:53.257Z,16.90
2019-01-05T19:38:37.525Z,15.77
2019-01-05T19:44:44.611Z,16.40
2019-01-05T19:47:43.791Z,16.50
2019-01-05T19:50:24.969Z,16.30
2019-01-05T19:53:08.975Z,14.50
2019-01-05T20:02:21.201Z,15.10
2019-01-05T20:05:03.130Z,18.20
2019-01-05T20:08:02.615Z,17.10
2019-01-05T20:11:02.612Z,15.20
2019-01-05T20:20:36.693Z,16.03
2019-01-05T20:23:17.427Z,16.47
2019-01-05T20:26:17.663Z,17.37
2019-01-05T20:29:17.493Z,18.03
2019-01-05T20:35:09.853Z,17.07
2019-01-05T20:37:54.906Z,15.30
2019-01-05T20:40:54.842Z,15.50
2019-01-05T20:43:54.132Z,16.60
2019-01-05T20:46:36.270Z,18.30
2019-01-05T20:49:36.332Z,18.20
2019-01-05T20:52:35.675Z,19.17
2019-01-05T20:55:34.890Z,19.40
2019-01-05T20:58:34.945Z,20.43
2019-01-05T21:01:20.118Z,21.27
2019-01-05T21:04:20.140Z,18.33
2019-01-05T21:13:59.189Z,16.70
2019-01-05T21:16:41.186Z,20.53
2019-01-05T21:19:23.216Z,20.03
2019-01-05T21:22:22.455Z,19.10
2019-01-05T21:25:22.822Z,16.97
2019-01-05T21:28:22.854Z,19.17
2019-01-05T21:31:07.830Z,20.00
2019-01-05T21:34:07.325Z,16.83
2019-01-05T21:36:51.549Z,17.80
2019-01-05T21:39:50.717Z,17.70
2019-01-05T21:42:50.865Z,16.77
2019-01-05T21:45:32.931Z,16.70
2019-01-05T21:48:15.078Z,17.70
2019-01-05T21:51:15.310Z,17.70
2019-01-05T22:03:43.340Z,17.43
2019-01-05T22:06:42.815Z,16.50
2019-01-05T22:09:42.900Z,16.77
2019-01-05T22:12:24.162Z,16.17
2019-01-05T22:15:24.228Z,15.60
2019-01-05T22:18:05.530Z,13.70
2019-01-05T22:20:47.607Z,15.77
2019-01-05T22:23:29.548Z,14.60
2019-01-05T22:26:29.467Z,17.13
2019-01-05T22:29:28.737Z,16.17
2019-01-05T22:32:28.115Z,16.63
2019-01-05T22:35:27.473Z,15.27
2019-01-05T22:38:26.858Z,16.63
2019-01-05T22:41:26.254Z,15.07
2019-01-05T22:44:25.551Z,14.60
2019-01-05T22:47:24.571Z,14.70
2019-01-05T22:50:16.185Z,14.97
2019-01-05T22:53:00.906Z,14.00
2019-01-05T22:56:01.199Z,16.93
2019-01-05T23:05:12.793Z,16.03
2019-01-05T23:07:59.957Z,15.60
2019-01-05T23:10:45.020Z,16.20
2019-01-05T23:13:44.826Z,14.90
2019-01-05T23:16:44.055Z,16.60
2019-01-05T23:19:25.317Z,15.90
2019-01-05T23:22:25.364Z,15.50
2019-01-05T23:25:24.508Z,16.73
2019-01-05T23:28:06.671Z,15.20
2019-01-05T23:31:07.302Z,15.93
2019-01-05T23:34:07.089Z,15.70
2019-01-05T23:37:06.482Z,18.13
2019-01-05T23:39:50.753Z,16.80
2019-01-05T23:42:50.802Z,18.77
2019-01-05T23:45:50.006Z,16.00
2019-01-05T23:48:35.190Z,16.97
2019-01-05T23:51:17.027Z,20.10
2019-01-05T23:54:16.744Z,16.87
2019-01-05T23:57:16.785Z,17.37
2019-01-05T23:59:58.305Z,17.17
